sensor_id;sensor_type;location;lat;lon;timestamp;P1;durP1;ratioP1;P2;durP2;ratioP2
75061;SDS011;63641;46.526;24.612;2024-03-02T00:00:20;3.75;;;2.55;;
75061;SDS011;63641;46.526;24.612;2024-03-02T00:02:48;7.53;;;2.58;;
75061;SDS011;63641;46.526;24.612;2024-03-02T00:05:19;3.60;;;2.30;;
75061;SDS011;63641;46.526;24.612;2024-03-02T00:07:52;4.80;;;2.63;;
75061;SDS011;63641;46.526;24.612;2024-03-02T00:10:26;3.85;;;2.83;;
75061;SDS011;63641;46.526;24.612;2024-03-02T00:13:03;2.85;;;2.60;;
75061;SDS011;63641;46.526;24.612;2024-03-02T00:17:57;3.60;;;2.38;;
75061;SDS011;63641;46.526;24.612;2024-03-02T00:20:25;2.83;;;2.38;;
75061;SDS011;63641;46.526;24.612;2024-03-02T00:23:03;4.13;;;2.63;;
75061;SDS011;63641;46.526;24.612;2024-03-02T00:25:50;4.20;;;2.28;;
75061;SDS011;63641;46.526;24.612;2024-03-02T00:28:22;3.88;;;2.28;;
75061;SDS011;63641;46.526;24.612;2024-03-02T00:31:04;2.85;;;2.50;;
75061;SDS011;63641;46.526;24.612;2024-03-02T00:33:35;3.87;;;2.47;;
75061;SDS011;63641;46.526;24.612;2024-03-02T00:36:04;3.28;;;2.72;;
75061;SDS011;63641;46.526;24.612;2024-03-02T00:38:33;2.53;;;2.22;;
75061;SDS011;63641;46.526;24.612;2024-03-02T00:41:04;3.75;;;2.38;;
75061;SDS011;63641;46.526;24.612;2024-03-02T00:46:06;7.10;;;2.83;;
75061;SDS011;63641;46.526;24.612;2024-03-02T00:48:34;4.20;;;2.58;;
75061;SDS011;63641;46.526;24.612;2024-03-02T00:51:03;4.20;;;2.97;;
75061;SDS011;63641;46.526;24.612;2024-03-02T00:53:31;3.25;;;2.70;;
75061;SDS011;63641;46.526;24.612;2024-03-02T00:56:01;6.63;;;2.90;;
75061;SDS011;63641;46.526;24.612;2024-03-02T00:58:28;3.35;;;2.70;;
75061;SDS011;63641;46.526;24.612;2024-03-02T01:00:54;3.60;;;2.53;;
75061;SDS011;63641;46.526;24.612;2024-03-02T01:03:22;5.38;;;2.67;;
75061;SDS011;63641;46.526;24.612;2024-03-02T01:05:48;3.40;;;2.25;;
75061;SDS011;63641;46.526;24.612;2024-03-02T01:08:15;4.13;;;2.58;;
75061;SDS011;63641;46.526;24.612;2024-03-02T01:10:42;3.53;;;2.15;;
75061;SDS011;63641;46.526;24.612;2024-03-02T01:13:09;2.92;;;1.92;;
75061;SDS011;63641;46.526;24.612;2024-03-02T01:15:36;2.85;;;2.17;;
75061;SDS011;63641;46.526;24.612;2024-03-02T01:18:03;3.35;;;2.13;;
75061;SDS011;63641;46.526;24.612;2024-03-02T01:20:29;2.30;;;2.05;;
75061;SDS011;63641;46.526;24.612;2024-03-02T01:22:56;3.30;;;2.40;;
75061;SDS011;63641;46.526;24.612;2024-03-02T01:25:23;3.60;;;2.10;;
75061;SDS011;63641;46.526;24.612;2024-03-02T01:27:50;2.92;;;2.22;;
75061;SDS011;63641;46.526;24.612;2024-03-02T01:30:17;3.78;;;2.63;;
75061;SDS011;63641;46.526;24.612;2024-03-02T01:32:44;2.90;;;2.60;;
75061;SDS011;63641;46.526;24.612;2024-03-02T01:35:10;3.90;;;2.38;;
75061;SDS011;63641;46.526;24.612;2024-03-02T01:37:37;5.60;;;2.70;;
75061;SDS011;63641;46.526;24.612;2024-03-02T01:40:04;4.30;;;2.50;;
75061;SDS011;63641;46.526;24.612;2024-03-02T01:42:36;3.05;;;2.10;;
75061;SDS011;63641;46.526;24.612;2024-03-02T01:45:06;3.15;;;2.33;;
75061;SDS011;63641;46.526;24.612;2024-03-02T01:47:34;3.80;;;2.67;;
75061;SDS011;63641;46.526;24.612;2024-03-02T01:50:01;4.47;;;2.60;;
75061;SDS011;63641;46.526;24.612;2024-03-02T01:52:29;3.95;;;2.40;;
75061;SDS011;63641;46.526;24.612;2024-03-02T01:54:55;4.30;;;2.60;;
75061;SDS011;63641;46.526;24.612;2024-03-02T01:57:23;2.40;;;2.20;;
75061;SDS011;63641;46.526;24.612;2024-03-02T01:59:50;2.80;;;2.38;;
75061;SDS011;63641;46.526;24.612;2024-03-02T02:02:17;3.33;;;2.47;;
75061;SDS011;63641;46.526;24.612;2024-03-02T02:04:44;2.50;;;2.20;;
75061;SDS011;63641;46.526;24.612;2024-03-02T02:07:11;3.80;;;2.60;;
75061;SDS011;63641;46.526;24.612;2024-03-02T02:09:37;2.63;;;2.05;;
75061;SDS011;63641;46.526;24.612;2024-03-02T02:12:04;2.50;;;2.30;;
75061;SDS011;63641;46.526;24.612;2024-03-02T02:14:33;3.58;;;2.40;;
75061;SDS011;63641;46.526;24.612;2024-03-02T02:17:00;4.68;;;2.47;;
75061;SDS011;63641;46.526;24.612;2024-03-02T02:19:26;3.67;;;2.25;;
75061;SDS011;63641;46.526;24.612;2024-03-02T02:21:53;3.10;;;2.63;;
75061;SDS011;63641;46.526;24.612;2024-03-02T02:24:21;3.38;;;2.45;;
75061;SDS011;63641;46.526;24.612;2024-03-02T02:26:47;5.57;;;2.47;;
75061;SDS011;63641;46.526;24.612;2024-03-02T02:29:14;2.85;;;2.17;;
75061;SDS011;63641;46.526;24.612;2024-03-02T02:31:41;2.53;;;2.33;;
75061;SDS011;63641;46.526;24.612;2024-03-02T02:34:08;6.40;;;2.53;;
75061;SDS011;63641;46.526;24.612;2024-03-02T02:36:37;4.30;;;2.47;;
75061;SDS011;63641;46.526;24.612;2024-03-02T02:39:06;2.83;;;2.40;;
75061;SDS011;63641;46.526;24.612;2024-03-02T02:41:38;2.58;;;2.38;;
75061;SDS011;63641;46.526;24.612;2024-03-02T02:44:05;5.10;;;2.50;;
75061;SDS011;63641;46.526;24.612;2024-03-02T02:46:32;2.50;;;2.30;;
75061;SDS011;63641;46.526;24.612;2024-03-02T02:48:58;5.07;;;2.75;;
75061;SDS011;63641;46.526;24.612;2024-03-02T02:51:25;3.42;;;2.53;;
75061;SDS011;63641;46.526;24.612;2024-03-02T02:53:52;3.83;;;2.50;;
75061;SDS011;63641;46.526;24.612;2024-03-02T02:56:19;3.72;;;2.58;;
75061;SDS011;63641;46.526;24.612;2024-03-02T02:58:46;4.07;;;2.42;;
75061;SDS011;63641;46.526;24.612;2024-03-02T03:01:12;4.22;;;2.90;;
75061;SDS011;63641;46.526;24.612;2024-03-02T03:03:40;4.40;;;2.70;;
75061;SDS011;63641;46.526;24.612;2024-03-02T03:06:07;3.45;;;2.65;;
75061;SDS011;63641;46.526;24.612;2024-03-02T03:08:33;6.20;;;2.80;;
75061;SDS011;63641;46.526;24.612;2024-03-02T03:11:00;3.53;;;2.50;;
75061;SDS011;63641;46.526;24.612;2024-03-02T03:13:27;6.43;;;3.50;;
75061;SDS011;63641;46.526;24.612;2024-03-02T03:15:54;5.65;;;2.83;;
75061;SDS011;63641;46.526;24.612;2024-03-02T03:18:21;2.95;;;2.72;;
75061;SDS011;63641;46.526;24.612;2024-03-02T03:20:48;3.40;;;3.10;;
75061;SDS011;63641;46.526;24.612;2024-03-02T03:23:15;3.08;;;2.78;;
75061;SDS011;63641;46.526;24.612;2024-03-02T03:25:43;3.33;;;2.53;;
75061;SDS011;63641;46.526;24.612;2024-03-02T03:28:10;3.20;;;2.90;;
75061;SDS011;63641;46.526;24.612;2024-03-02T03:30:37;3.70;;;2.85;;
75061;SDS011;63641;46.526;24.612;2024-03-02T03:33:04;4.53;;;3.05;;
75061;SDS011;63641;46.526;24.612;2024-03-02T03:35:35;4.63;;;3.25;;
75061;SDS011;63641;46.526;24.612;2024-03-02T03:38:03;4.82;;;2.80;;
75061;SDS011;63641;46.526;24.612;2024-03-02T03:40:29;3.08;;;2.78;;
75061;SDS011;63641;46.526;24.612;2024-03-02T03:42:56;4.82;;;3.05;;
75061;SDS011;63641;46.526;24.612;2024-03-02T03:45:23;3.30;;;2.47;;
75061;SDS011;63641;46.526;24.612;2024-03-02T03:47:53;5.53;;;2.67;;
75061;SDS011;63641;46.526;24.612;2024-03-02T03:50:20;3.15;;;2.63;;
75061;SDS011;63641;46.526;24.612;2024-03-02T03:52:47;3.38;;;2.67;;
75061;SDS011;63641;46.526;24.612;2024-03-02T03:55:13;3.42;;;2.72;;
75061;SDS011;63641;46.526;24.612;2024-03-02T03:57:40;3.70;;;2.67;;
75061;SDS011;63641;46.526;24.612;2024-03-02T04:00:07;4.82;;;3.00;;
75061;SDS011;63641;46.526;24.612;2024-03-02T04:02:36;3.03;;;2.50;;
75061;SDS011;63641;46.526;24.612;2024-03-02T04:05:03;3.70;;;3.28;;
75061;SDS011;63641;46.526;24.612;2024-03-02T04:07:35;3.08;;;2.78;;
75061;SDS011;63641;46.526;24.612;2024-03-02T04:10:10;4.10;;;3.03;;
75061;SDS011;63641;46.526;24.612;2024-03-02T04:12:37;3.83;;;3.05;;
75061;SDS011;63641;46.526;24.612;2024-03-02T04:15:06;4.82;;;3.17;;
75061;SDS011;63641;46.526;24.612;2024-03-02T04:17:34;4.35;;;2.80;;
75061;SDS011;63641;46.526;24.612;2024-03-02T04:20:02;3.67;;;3.35;;
75061;SDS011;63641;46.526;24.612;2024-03-02T04:22:32;3.55;;;2.90;;
75061;SDS011;63641;46.526;24.612;2024-03-02T04:25:01;3.85;;;2.88;;
75061;SDS011;63641;46.526;24.612;2024-03-02T04:27:29;5.68;;;3.03;;
75061;SDS011;63641;46.526;24.612;2024-03-02T04:29:55;4.45;;;3.40;;
75061;SDS011;63641;46.526;24.612;2024-03-02T04:32:22;6.25;;;3.22;;
75061;SDS011;63641;46.526;24.612;2024-03-02T04:34:49;3.75;;;2.67;;
75061;SDS011;63641;46.526;24.612;2024-03-02T04:37:16;5.78;;;3.40;;
75061;SDS011;63641;46.526;24.612;2024-03-02T04:39:42;5.63;;;3.38;;
75061;SDS011;63641;46.526;24.612;2024-03-02T04:42:09;3.40;;;3.10;;
75061;SDS011;63641;46.526;24.612;2024-03-02T04:44:36;3.35;;;3.05;;
75061;SDS011;63641;46.526;24.612;2024-03-02T04:47:04;4.45;;;3.38;;
75061;SDS011;63641;46.526;24.612;2024-03-02T04:49:31;4.10;;;3.40;;
75061;SDS011;63641;46.526;24.612;2024-03-02T04:51:58;3.75;;;2.80;;
75061;SDS011;63641;46.526;24.612;2024-03-02T04:54:25;4.20;;;2.83;;
75061;SDS011;63641;46.526;24.612;2024-03-02T04:56:52;7.00;;;3.42;;
75061;SDS011;63641;46.526;24.612;2024-03-02T04:59:19;5.40;;;3.22;;
75061;SDS011;63641;46.526;24.612;2024-03-02T05:01:46;5.88;;;3.50;;
75061;SDS011;63641;46.526;24.612;2024-03-02T05:04:13;4.32;;;2.83;;
75061;SDS011;63641;46.526;24.612;2024-03-02T05:06:40;5.72;;;2.90;;
75061;SDS011;63641;46.526;24.612;2024-03-02T05:09:08;5.22;;;3.35;;
75061;SDS011;63641;46.526;24.612;2024-03-02T05:11:35;3.53;;;3.22;;
75061;SDS011;63641;46.526;24.612;2024-03-02T05:14:05;4.50;;;3.10;;
75061;SDS011;63641;46.526;24.612;2024-03-02T05:16:33;5.30;;;3.03;;
75061;SDS011;63641;46.526;24.612;2024-03-02T05:19:06;11.18;;;3.90;;
75061;SDS011;63641;46.526;24.612;2024-03-02T05:21:33;6.43;;;3.13;;
75061;SDS011;63641;46.526;24.612;2024-03-02T05:24:00;5.38;;;3.38;;
75061;SDS011;63641;46.526;24.612;2024-03-02T05:26:27;4.50;;;3.30;;
75061;SDS011;63641;46.526;24.612;2024-03-02T05:28:54;5.82;;;3.75;;
75061;SDS011;63641;46.526;24.612;2024-03-02T05:31:21;12.85;;;8.07;;
75061;SDS011;63641;46.526;24.612;2024-03-02T05:33:48;6.93;;;5.40;;
75061;SDS011;63641;46.526;24.612;2024-03-02T05:36:19;7.57;;;5.10;;
75061;SDS011;63641;46.526;24.612;2024-03-02T05:38:47;8.30;;;7.40;;
75061;SDS011;63641;46.526;24.612;2024-03-02T05:41:13;8.65;;;5.53;;
75061;SDS011;63641;46.526;24.612;2024-03-02T05:43:40;7.93;;;5.45;;
75061;SDS011;63641;46.526;24.612;2024-03-02T05:46:07;8.15;;;5.25;;
75061;SDS011;63641;46.526;24.612;2024-03-02T05:48:34;6.30;;;5.07;;
75061;SDS011;63641;46.526;24.612;2024-03-02T05:51:00;8.70;;;6.30;;
75061;SDS011;63641;46.526;24.612;2024-03-02T05:53:28;6.68;;;5.35;;
75061;SDS011;63641;46.526;24.612;2024-03-02T05:55:54;7.72;;;5.45;;
75061;SDS011;63641;46.526;24.612;2024-03-02T05:58:22;7.03;;;5.57;;
75061;SDS011;63641;46.526;24.612;2024-03-02T06:00:49;7.68;;;5.03;;
75061;SDS011;63641;46.526;24.612;2024-03-02T06:03:15;9.48;;;5.65;;
75061;SDS011;63641;46.526;24.612;2024-03-02T06:05:43;6.82;;;5.30;;
75061;SDS011;63641;46.526;24.612;2024-03-02T06:08:10;8.40;;;5.38;;
75061;SDS011;63641;46.526;24.612;2024-03-02T06:10:37;7.43;;;4.80;;
75061;SDS011;63641;46.526;24.612;2024-03-02T06:13:03;7.80;;;5.57;;
75061;SDS011;63641;46.526;24.612;2024-03-02T06:15:30;7.88;;;5.47;;
75061;SDS011;63641;46.526;24.612;2024-03-02T06:17:57;7.90;;;5.50;;
75061;SDS011;63641;46.526;24.612;2024-03-02T06:20:24;7.38;;;5.38;;
75061;SDS011;63641;46.526;24.612;2024-03-02T06:22:53;6.72;;;5.28;;
75061;SDS011;63641;46.526;24.612;2024-03-02T06:25:19;12.07;;;6.22;;
75061;SDS011;63641;46.526;24.612;2024-03-02T06:27:46;7.65;;;5.80;;
75061;SDS011;63641;46.526;24.612;2024-03-02T06:30:13;7.80;;;5.43;;
75061;SDS011;63641;46.526;24.612;2024-03-02T06:32:39;9.02;;;5.65;;
75061;SDS011;63641;46.526;24.612;2024-03-02T06:35:06;6.70;;;4.60;;
75061;SDS011;63641;46.526;24.612;2024-03-02T06:37:36;8.27;;;4.00;;
75061;SDS011;63641;46.526;24.612;2024-03-02T06:40:05;7.70;;;4.25;;
75061;SDS011;63641;46.526;24.612;2024-03-02T06:42:36;7.13;;;5.18;;
75061;SDS011;63641;46.526;24.612;2024-03-02T06:45:03;6.13;;;3.70;;
75061;SDS011;63641;46.526;24.612;2024-03-02T06:47:31;4.30;;;3.88;;
75061;SDS011;63641;46.526;24.612;2024-03-02T06:49:58;5.85;;;4.03;;
75061;SDS011;63641;46.526;24.612;2024-03-02T06:52:25;6.80;;;3.80;;
75061;SDS011;63641;46.526;24.612;2024-03-02T06:54:51;6.25;;;4.22;;
75061;SDS011;63641;46.526;24.612;2024-03-02T06:57:18;5.68;;;4.03;;
75061;SDS011;63641;46.526;24.612;2024-03-02T06:59:47;5.50;;;4.20;;
75061;SDS011;63641;46.526;24.612;2024-03-02T07:02:16;6.25;;;3.63;;
75061;SDS011;63641;46.526;24.612;2024-03-02T07:04:43;7.68;;;4.20;;
75061;SDS011;63641;46.526;24.612;2024-03-02T07:07:11;11.35;;;4.05;;
75061;SDS011;63641;46.526;24.612;2024-03-02T07:09:38;6.90;;;4.40;;
75061;SDS011;63641;46.526;24.612;2024-03-02T07:12:05;6.60;;;4.03;;
75061;SDS011;63641;46.526;24.612;2024-03-02T07:14:32;5.97;;;4.25;;
75061;SDS011;63641;46.526;24.612;2024-03-02T07:17:25;5.63;;;3.75;;
75061;SDS011;63641;46.526;24.612;2024-03-02T07:19:52;4.60;;;3.15;;
75061;SDS011;63641;46.526;24.612;2024-03-02T07:22:19;4.68;;;3.33;;
75061;SDS011;63641;46.526;24.612;2024-03-02T07:24:46;4.25;;;3.38;;
75061;SDS011;63641;46.526;24.612;2024-03-02T07:27:13;6.93;;;4.93;;
75061;SDS011;63641;46.526;24.612;2024-03-02T07:29:40;6.97;;;4.95;;
75061;SDS011;63641;46.526;24.612;2024-03-02T07:32:08;7.68;;;4.93;;
75061;SDS011;63641;46.526;24.612;2024-03-02T07:34:35;5.72;;;3.60;;
75061;SDS011;63641;46.526;24.612;2024-03-02T07:37:03;5.45;;;4.05;;
75061;SDS011;63641;46.526;24.612;2024-03-02T07:39:31;7.40;;;2.90;;
75061;SDS011;63641;46.526;24.612;2024-03-02T07:41:58;6.63;;;3.25;;
75061;SDS011;63641;46.526;24.612;2024-03-02T07:44:25;4.45;;;3.42;;
75061;SDS011;63641;46.526;24.612;2024-03-02T07:46:52;6.63;;;5.10;;
75061;SDS011;63641;46.526;24.612;2024-03-02T07:49:19;7.88;;;5.00;;
75061;SDS011;63641;46.526;24.612;2024-03-02T07:51:46;28.33;;;17.30;;
75061;SDS011;63641;46.526;24.612;2024-03-02T07:54:13;12.82;;;8.60;;
75061;SDS011;63641;46.526;24.612;2024-03-02T07:56:40;9.77;;;6.38;;
75061;SDS011;63641;46.526;24.612;2024-03-02T07:59:06;8.52;;;4.30;;
75061;SDS011;63641;46.526;24.612;2024-03-02T08:01:33;10.68;;;5.72;;
75061;SDS011;63641;46.526;24.612;2024-03-02T08:04:01;8.10;;;5.45;;
75061;SDS011;63641;46.526;24.612;2024-03-02T08:06:30;7.68;;;5.43;;
75061;SDS011;63641;46.526;24.612;2024-03-02T08:08:57;11.13;;;6.90;;
75061;SDS011;63641;46.526;24.612;2024-03-02T08:11:25;9.55;;;7.20;;
75061;SDS011;63641;46.526;24.612;2024-03-02T08:13:53;8.43;;;6.18;;
75061;SDS011;63641;46.526;24.612;2024-03-02T08:16:23;8.52;;;6.97;;
75061;SDS011;63641;46.526;24.612;2024-03-02T08:18:51;8.88;;;6.03;;
75061;SDS011;63641;46.526;24.612;2024-03-02T08:21:19;8.15;;;5.47;;
75061;SDS011;63641;46.526;24.612;2024-03-02T08:23:46;10.65;;;5.40;;
75061;SDS011;63641;46.526;24.612;2024-03-02T08:26:13;5.95;;;4.80;;
75061;SDS011;63641;46.526;24.612;2024-03-02T08:28:40;7.03;;;4.60;;
75061;SDS011;63641;46.526;24.612;2024-03-02T08:31:08;5.78;;;4.47;;
75061;SDS011;63641;46.526;24.612;2024-03-02T08:33:35;5.78;;;4.15;;
75061;SDS011;63641;46.526;24.612;2024-03-02T08:36:04;5.40;;;3.38;;
75061;SDS011;63641;46.526;24.612;2024-03-02T08:38:31;3.65;;;3.10;;
75061;SDS011;63641;46.526;24.612;2024-03-02T08:40:58;7.53;;;3.50;;
75061;SDS011;63641;46.526;24.612;2024-03-02T08:43:25;5.80;;;3.40;;
75061;SDS011;63641;46.526;24.612;2024-03-02T08:45:52;4.88;;;3.33;;
75061;SDS011;63641;46.526;24.612;2024-03-02T08:48:18;5.80;;;3.63;;
75061;SDS011;63641;46.526;24.612;2024-03-02T08:50:47;16.00;;;4.75;;
75061;SDS011;63641;46.526;24.612;2024-03-02T08:53:14;6.05;;;4.00;;
75061;SDS011;63641;46.526;24.612;2024-03-02T08:55:50;6.28;;;4.07;;
75061;SDS011;63641;46.526;24.612;2024-03-02T08:58:16;7.72;;;4.38;;
75061;SDS011;63641;46.526;24.612;2024-03-02T09:00:43;7.82;;;5.50;;
75061;SDS011;63641;46.526;24.612;2024-03-02T09:03:10;7.93;;;5.18;;
75061;SDS011;63641;46.526;24.612;2024-03-02T09:05:37;4.00;;;3.33;;
75061;SDS011;63641;46.526;24.612;2024-03-02T09:08:04;4.63;;;3.03;;
75061;SDS011;63641;46.526;24.612;2024-03-02T09:10:31;19.30;;;3.67;;
75061;SDS011;63641;46.526;24.612;2024-03-02T09:12:59;5.47;;;3.33;;
75061;SDS011;63641;46.526;24.612;2024-03-02T09:15:26;10.38;;;3.60;;
75061;SDS011;63641;46.526;24.612;2024-03-02T09:17:53;5.70;;;3.15;;
75061;SDS011;63641;46.526;24.612;2024-03-02T09:20:20;5.40;;;3.10;;
75061;SDS011;63641;46.526;24.612;2024-03-02T09:22:47;4.07;;;3.20;;
75061;SDS011;63641;46.526;24.612;2024-03-02T09:25:15;5.03;;;2.75;;
75061;SDS011;63641;46.526;24.612;2024-03-02T09:27:43;5.40;;;2.65;;
75061;SDS011;63641;46.526;24.612;2024-03-02T09:30:10;6.35;;;2.95;;
75061;SDS011;63641;46.526;24.612;2024-03-02T09:32:37;6.25;;;3.75;;
75061;SDS011;63641;46.526;24.612;2024-03-02T09:35:05;5.60;;;3.42;;
75061;SDS011;63641;46.526;24.612;2024-03-02T09:37:32;6.57;;;3.30;;
75061;SDS011;63641;46.526;24.612;2024-03-02T09:39:58;7.25;;;2.92;;
75061;SDS011;63641;46.526;24.612;2024-03-02T09:42:26;3.90;;;2.92;;
75061;SDS011;63641;46.526;24.612;2024-03-02T09:44:53;5.40;;;3.03;;
75061;SDS011;63641;46.526;24.612;2024-03-02T09:47:20;4.20;;;2.80;;
75061;SDS011;63641;46.526;24.612;2024-03-02T09:49:47;6.00;;;3.08;;
75061;SDS011;63641;46.526;24.612;2024-03-02T09:52:13;5.38;;;2.92;;
75061;SDS011;63641;46.526;24.612;2024-03-02T09:54:41;13.68;;;3.15;;
75061;SDS011;63641;46.526;24.612;2024-03-02T09:57:08;5.28;;;3.10;;
75061;SDS011;63641;46.526;24.612;2024-03-02T09:59:35;10.73;;;3.63;;
75061;SDS011;63641;46.526;24.612;2024-03-02T10:02:02;4.78;;;3.25;;
75061;SDS011;63641;46.526;24.612;2024-03-02T10:04:30;5.20;;;3.72;;
75061;SDS011;63641;46.526;24.612;2024-03-02T10:07:13;4.45;;;3.28;;
75061;SDS011;63641;46.526;24.612;2024-03-02T10:09:42;3.83;;;2.47;;
75061;SDS011;63641;46.526;24.612;2024-03-02T10:12:11;4.57;;;2.58;;
75061;SDS011;63641;46.526;24.612;2024-03-02T10:14:39;6.43;;;3.20;;
75061;SDS011;63641;46.526;24.612;2024-03-02T10:17:08;5.57;;;3.22;;
75061;SDS011;63641;46.526;24.612;2024-03-02T10:19:36;6.10;;;3.25;;
75061;SDS011;63641;46.526;24.612;2024-03-02T10:22:06;6.88;;;3.30;;
75061;SDS011;63641;46.526;24.612;2024-03-02T10:24:43;6.90;;;3.00;;
75061;SDS011;63641;46.526;24.612;2024-03-02T10:27:16;4.57;;;2.90;;
75061;SDS011;63641;46.526;24.612;2024-03-02T10:29:47;13.73;;;6.28;;
75061;SDS011;63641;46.526;24.612;2024-03-02T10:32:14;7.43;;;3.72;;
75061;SDS011;63641;46.526;24.612;2024-03-02T10:34:43;7.35;;;3.20;;
75061;SDS011;63641;46.526;24.612;2024-03-02T10:37:11;6.93;;;3.15;;
75061;SDS011;63641;46.526;24.612;2024-03-02T10:39:39;10.70;;;3.50;;
75061;SDS011;63641;46.526;24.612;2024-03-02T10:42:07;5.43;;;3.03;;
75061;SDS011;63641;46.526;24.612;2024-03-02T10:44:34;4.95;;;2.90;;
75061;SDS011;63641;46.526;24.612;2024-03-02T10:47:02;4.30;;;2.83;;
75061;SDS011;63641;46.526;24.612;2024-03-02T10:49:31;4.28;;;2.85;;
75061;SDS011;63641;46.526;24.612;2024-03-02T10:51:59;3.58;;;2.33;;
75061;SDS011;63641;46.526;24.612;2024-03-02T10:54:26;4.72;;;2.88;;
75061;SDS011;63641;46.526;24.612;2024-03-02T10:56:58;5.72;;;2.55;;
75061;SDS011;63641;46.526;24.612;2024-03-02T10:59:28;5.90;;;2.70;;
75061;SDS011;63641;46.526;24.612;2024-03-02T11:02:00;5.90;;;2.78;;
75061;SDS011;63641;46.526;24.612;2024-03-02T11:04:37;3.63;;;2.73;;
75061;SDS011;63641;46.526;24.612;2024-03-02T11:07:07;5.22;;;2.98;;
75061;SDS011;63641;46.526;24.612;2024-03-02T11:09:41;3.80;;;2.45;;
75061;SDS011;63641;46.526;24.612;2024-03-02T11:15:10;6.82;;;3.17;;
75061;SDS011;63641;46.526;24.612;2024-03-02T11:17:42;4.97;;;2.90;;
75061;SDS011;63641;46.526;24.612;2024-03-02T11:20:10;4.70;;;3.28;;
75061;SDS011;63641;46.526;24.612;2024-03-02T11:22:37;5.47;;;2.90;;
75061;SDS011;63641;46.526;24.612;2024-03-02T11:25:04;7.03;;;3.05;;
75061;SDS011;63641;46.526;24.612;2024-03-02T11:32:58;4.22;;;3.03;;
75061;SDS011;63641;46.526;24.612;2024-03-02T11:35:42;4.18;;;2.80;;
75061;SDS011;63641;46.526;24.612;2024-03-02T11:38:13;5.65;;;3.17;;
75061;SDS011;63641;46.526;24.612;2024-03-02T11:40:40;4.28;;;2.90;;
75061;SDS011;63641;46.526;24.612;2024-03-02T11:43:07;6.63;;;2.60;;
75061;SDS011;63641;46.526;24.612;2024-03-02T11:45:35;5.55;;;2.97;;
75061;SDS011;63641;46.526;24.612;2024-03-02T11:48:06;3.25;;;2.47;;
75061;SDS011;63641;46.526;24.612;2024-03-02T11:50:43;3.38;;;2.60;;
75061;SDS011;63641;46.526;24.612;2024-03-02T11:55:40;4.30;;;2.60;;
75061;SDS011;63641;46.526;24.612;2024-03-02T11:58:07;4.15;;;2.55;;
75061;SDS011;63641;46.526;24.612;2024-03-02T12:00:34;3.50;;;2.60;;
75061;SDS011;63641;46.526;24.612;2024-03-02T12:03:03;3.53;;;2.65;;
75061;SDS011;63641;46.526;24.612;2024-03-02T12:05:32;4.93;;;3.00;;
75061;SDS011;63641;46.526;24.612;2024-03-02T12:08:00;5.35;;;3.35;;
75061;SDS011;63641;46.526;24.612;2024-03-02T12:10:28;5.10;;;2.40;;
75061;SDS011;63641;46.526;24.612;2024-03-02T12:13:03;5.88;;;2.80;;
75061;SDS011;63641;46.526;24.612;2024-03-02T12:15:31;5.55;;;2.60;;
75061;SDS011;63641;46.526;24.612;2024-03-02T12:17:59;4.15;;;2.80;;
75061;SDS011;63641;46.526;24.612;2024-03-02T12:20:28;3.85;;;2.53;;
75061;SDS011;63641;46.526;24.612;2024-03-02T12:23:00;5.20;;;2.38;;
75061;SDS011;63641;46.526;24.612;2024-03-02T12:25:28;5.40;;;2.60;;
75061;SDS011;63641;46.526;24.612;2024-03-02T12:27:57;3.65;;;2.42;;
75061;SDS011;63641;46.526;24.612;2024-03-02T12:30:27;7.65;;;2.88;;
75061;SDS011;63641;46.526;24.612;2024-03-02T12:32:56;4.97;;;2.22;;
75061;SDS011;63641;46.526;24.612;2024-03-02T12:35:23;3.50;;;2.60;;
75061;SDS011;63641;46.526;24.612;2024-03-02T12:37:52;4.28;;;2.63;;
75061;SDS011;63641;46.526;24.612;2024-03-02T12:40:20;4.28;;;2.90;;
75061;SDS011;63641;46.526;24.612;2024-03-02T12:42:49;5.07;;;2.72;;
75061;SDS011;63641;46.526;24.612;2024-03-02T12:45:18;3.85;;;2.75;;
75061;SDS011;63641;46.526;24.612;2024-03-02T12:47:54;5.47;;;2.58;;
75061;SDS011;63641;46.526;24.612;2024-03-02T12:50:21;5.00;;;2.47;;
75061;SDS011;63641;46.526;24.612;2024-03-02T12:52:51;5.18;;;2.80;;
75061;SDS011;63641;46.526;24.612;2024-03-02T12:55:22;3.88;;;2.78;;
75061;SDS011;63641;46.526;24.612;2024-03-02T12:57:52;2.67;;;2.40;;
75061;SDS011;63641;46.526;24.612;2024-03-02T13:00:20;5.18;;;2.60;;
75061;SDS011;63641;46.526;24.612;2024-03-02T13:02:49;4.85;;;2.70;;
75061;SDS011;63641;46.526;24.612;2024-03-02T13:05:18;3.72;;;2.50;;
75061;SDS011;63641;46.526;24.612;2024-03-02T13:07:47;3.65;;;2.65;;
75061;SDS011;63641;46.526;24.612;2024-03-02T13:10:15;8.13;;;2.65;;
75061;SDS011;63641;46.526;24.612;2024-03-02T13:12:44;3.03;;;2.72;;
75061;SDS011;63641;46.526;24.612;2024-03-02T13:15:11;4.53;;;3.17;;
75061;SDS011;63641;46.526;24.612;2024-03-02T13:17:44;3.95;;;2.75;;
75061;SDS011;63641;46.526;24.612;2024-03-02T13:20:13;3.85;;;2.30;;
75061;SDS011;63641;46.526;24.612;2024-03-02T13:22:41;5.78;;;2.97;;
75061;SDS011;63641;46.526;24.612;2024-03-02T13:25:08;5.53;;;2.45;;
75061;SDS011;63641;46.526;24.612;2024-03-02T13:27:37;4.47;;;3.00;;
75061;SDS011;63641;46.526;24.612;2024-03-02T13:30:04;3.70;;;2.47;;
75061;SDS011;63641;46.526;24.612;2024-03-02T13:32:32;4.47;;;2.60;;
75061;SDS011;63641;46.526;24.612;2024-03-02T13:34:59;2.53;;;2.22;;
75061;SDS011;63641;46.526;24.612;2024-03-02T13:37:26;4.68;;;2.75;;
75061;SDS011;63641;46.526;24.612;2024-03-02T13:39:53;5.47;;;2.92;;
75061;SDS011;63641;46.526;24.612;2024-03-02T13:42:20;5.68;;;2.95;;
75061;SDS011;63641;46.526;24.612;2024-03-02T13:44:47;7.18;;;4.43;;
75061;SDS011;63641;46.526;24.612;2024-03-02T13:47:16;7.80;;;4.70;;
75061;SDS011;63641;46.526;24.612;2024-03-02T13:49:43;5.95;;;5.00;;
75061;SDS011;63641;46.526;24.612;2024-03-02T13:52:12;6.32;;;4.72;;
75061;SDS011;63641;46.526;24.612;2024-03-02T13:54:40;8.20;;;5.05;;
75061;SDS011;63641;46.526;24.612;2024-03-02T13:57:08;7.38;;;4.80;;
75061;SDS011;63641;46.526;24.612;2024-03-02T13:59:36;8.00;;;5.50;;
75061;SDS011;63641;46.526;24.612;2024-03-02T14:02:07;5.53;;;5.00;;
75061;SDS011;63641;46.526;24.612;2024-03-02T14:04:35;8.10;;;5.18;;
75061;SDS011;63641;46.526;24.612;2024-03-02T14:07:03;7.65;;;4.82;;
75061;SDS011;63641;46.526;24.612;2024-03-02T14:09:35;7.15;;;4.68;;
75061;SDS011;63641;46.526;24.612;2024-03-02T14:12:03;8.70;;;4.38;;
75061;SDS011;63641;46.526;24.612;2024-03-02T14:14:31;10.15;;;4.53;;
75061;SDS011;63641;46.526;24.612;2024-03-02T14:16:57;7.28;;;4.30;;
75061;SDS011;63641;46.526;24.612;2024-03-02T14:19:30;4.28;;;3.60;;
75061;SDS011;63641;46.526;24.612;2024-03-02T14:21:58;8.40;;;3.70;;
75061;SDS011;63641;46.526;24.612;2024-03-02T14:24:26;7.93;;;3.85;;
75061;SDS011;63641;46.526;24.612;2024-03-02T14:26:55;10.50;;;4.00;;
75061;SDS011;63641;46.526;24.612;2024-03-02T14:29:43;6.20;;;4.18;;
75061;SDS011;63641;46.526;24.612;2024-03-02T14:32:10;7.05;;;4.47;;
75061;SDS011;63641;46.526;24.612;2024-03-02T14:34:37;8.10;;;4.22;;
75061;SDS011;63641;46.526;24.612;2024-03-02T14:37:05;7.47;;;4.60;;
75061;SDS011;63641;46.526;24.612;2024-03-02T14:39:33;7.68;;;4.28;;
75061;SDS011;63641;46.526;24.612;2024-03-02T14:42:02;6.93;;;4.70;;
75061;SDS011;63641;46.526;24.612;2024-03-02T14:44:30;8.38;;;4.22;;
75061;SDS011;63641;46.526;24.612;2024-03-02T14:46:56;8.30;;;4.43;;
75061;SDS011;63641;46.526;24.612;2024-03-02T14:49:25;8.55;;;4.55;;
75061;SDS011;63641;46.526;24.612;2024-03-02T14:51:52;7.05;;;4.85;;
75061;SDS011;63641;46.526;24.612;2024-03-02T14:54:20;8.30;;;4.60;;